sensor_id;sensor_type;location;lat;lon;timestamp;P1;durP1;ratioP1;P2;durP2;ratioP2
41057;SDS011;27499;48.884;2.258;2022-08-11T00:01:16;7.90;;;7.40;;
41057;SDS011;27499;48.884;2.258;2022-08-11T00:03:47;8.13;;;7.63;;
41057;SDS011;27499;48.884;2.258;2022-08-11T00:06:26;8.40;;;7.90;;
41057;SDS011;27499;48.884;2.258;2022-08-11T00:09:04;7.57;;;7.07;;
41057;SDS011;27499;48.884;2.258;2022-08-11T00:11:37;7.50;;;6.55;;
41057;SDS011;27499;48.884;2.258;2022-08-11T00:14:27;7.80;;;7.15;;
41057;SDS011;27499;48.884;2.258;2022-08-11T00:17:03;7.32;;;6.72;;
41057;SDS011;27499;48.884;2.258;2022-08-11T00:19:33;7.00;;;6.30;;
41057;SDS011;27499;48.884;2.258;2022-08-11T00:22:23;7.03;;;6.53;;
41057;SDS011;27499;48.884;2.258;2022-08-11T00:24:50;7.18;;;6.50;;
41057;SDS011;27499;48.884;2.258;2022-08-11T00:27:31;7.93;;;6.28;;
41057;SDS011;27499;48.884;2.258;2022-08-11T00:29:59;8.03;;;7.43;;
41057;SDS011;27499;48.884;2.258;2022-08-11T00:32:27;8.18;;;7.18;;
41057;SDS011;27499;48.884;2.258;2022-08-11T00:34:56;7.28;;;6.88;;
41057;SDS011;27499;48.884;2.258;2022-08-11T00:37:49;6.82;;;6.22;;
41057;SDS011;27499;48.884;2.258;2022-08-11T00:40:27;6.65;;;6.15;;
41057;SDS011;27499;48.884;2.258;2022-08-11T00:43:14;6.78;;;6.38;;
41057;SDS011;27499;48.884;2.258;2022-08-11T00:46:03;8.23;;;7.63;;
41057;SDS011;27499;48.884;2.258;2022-08-11T00:51:46;7.55;;;7.05;;
41057;SDS011;27499;48.884;2.258;2022-08-11T01:01:04;7.20;;;6.70;;
41057;SDS011;27499;48.884;2.258;2022-08-11T01:09:24;7.45;;;5.57;;
41057;SDS011;27499;48.884;2.258;2022-08-11T01:29:32;7.57;;;7.03;;
41057;SDS011;27499;48.884;2.258;2022-08-11T01:44:29;8.73;;;7.93;;
41057;SDS011;27499;48.884;2.258;2022-08-11T02:05:14;8.88;;;8.38;;
41057;SDS011;27499;48.884;2.258;2022-08-11T02:07:35;8.57;;;8.07;;
41057;SDS011;27499;48.884;2.258;2022-08-11T02:10:30;8.80;;;8.40;;
41057;SDS011;27499;48.884;2.258;2022-08-11T02:13:21;9.27;;;8.57;;
41057;SDS011;27499;48.884;2.258;2022-08-11T02:19:12;10.50;;;9.85;;
41057;SDS011;27499;48.884;2.258;2022-08-11T02:22:04;9.05;;;8.55;;
41057;SDS011;27499;48.884;2.258;2022-08-11T02:27:53;10.00;;;9.50;;
41057;SDS011;27499;48.884;2.258;2022-08-11T02:30:36;9.50;;;8.90;;
41057;SDS011;27499;48.884;2.258;2022-08-11T02:33:40;10.50;;;9.50;;
41057;SDS011;27499;48.884;2.258;2022-08-11T02:36:15;10.18;;;9.63;;
41057;SDS011;27499;48.884;2.258;2022-08-11T02:44:33;9.50;;;8.90;;
41057;SDS011;27499;48.884;2.258;2022-08-11T02:47:45;9.07;;;8.57;;
41057;SDS011;27499;48.884;2.258;2022-08-11T02:50:40;10.05;;;9.45;;
41057;SDS011;27499;48.884;2.258;2022-08-11T02:53:31;10.20;;;9.50;;
41057;SDS011;27499;48.884;2.258;2022-08-11T02:56:06;9.50;;;8.85;;
41057;SDS011;27499;48.884;2.258;2022-08-11T03:01:50;10.45;;;9.85;;
41057;SDS011;27499;48.884;2.258;2022-08-11T03:05:17;9.90;;;9.30;;
41057;SDS011;27499;48.884;2.258;2022-08-11T03:10:03;9.35;;;8.85;;
41057;SDS011;27499;48.884;2.258;2022-08-11T03:12:51;9.20;;;8.50;;
41057;SDS011;27499;48.884;2.258;2022-08-11T03:15:48;9.52;;;8.93;;
41057;SDS011;27499;48.884;2.258;2022-08-11T03:19:36;9.23;;;8.68;;
41057;SDS011;27499;48.884;2.258;2022-08-11T03:21:46;10.48;;;9.80;;
41057;SDS011;27499;48.884;2.258;2022-08-11T03:30:15;11.95;;;11.10;;
41057;SDS011;27499;48.884;2.258;2022-08-11T03:35:35;12.23;;;11.57;;
41057;SDS011;27499;48.884;2.258;2022-08-11T03:38:11;10.95;;;10.35;;
41057;SDS011;27499;48.884;2.258;2022-08-11T04:01:59;13.40;;;12.60;;
41057;SDS011;27499;48.884;2.258;2022-08-11T04:15:57;15.65;;;14.50;;
41057;SDS011;27499;48.884;2.258;2022-08-11T04:24:26;15.90;;;15.07;;
41057;SDS011;27499;48.884;2.258;2022-08-11T04:27:20;15.80;;;14.80;;
41057;SDS011;27499;48.884;2.258;2022-08-11T04:54:48;16.13;;;15.13;;
41057;SDS011;27499;48.884;2.258;2022-08-11T05:10:11;15.15;;;14.15;;
41057;SDS011;27499;48.884;2.258;2022-08-11T05:12:53;15.43;;;14.63;;
41057;SDS011;27499;48.884;2.258;2022-08-11T05:15:32;26.10;;;19.25;;
41057;SDS011;27499;48.884;2.258;2022-08-11T05:21:15;14.50;;;13.40;;
41057;SDS011;27499;48.884;2.258;2022-08-11T05:24:12;13.52;;;12.73;;
41057;SDS011;27499;48.884;2.258;2022-08-11T05:27:04;13.05;;;12.40;;
41057;SDS011;27499;48.884;2.258;2022-08-11T05:32:38;15.43;;;14.30;;
41057;SDS011;27499;48.884;2.258;2022-08-11T05:35:46;14.20;;;13.10;;
41057;SDS011;27499;48.884;2.258;2022-08-11T05:38:28;13.90;;;13.02;;
41057;SDS011;27499;48.884;2.258;2022-08-11T05:41:18;14.07;;;13.25;;
41057;SDS011;27499;48.884;2.258;2022-08-11T05:44:06;14.70;;;13.68;;
41057;SDS011;27499;48.884;2.258;2022-08-11T05:46:54;13.38;;;12.40;;
41057;SDS011;27499;48.884;2.258;2022-08-11T05:49:41;13.30;;;12.52;;
41057;SDS011;27499;48.884;2.258;2022-08-11T05:52:38;12.93;;;12.23;;
41057;SDS011;27499;48.884;2.258;2022-08-11T05:55:29;12.65;;;11.82;;
41057;SDS011;27499;48.884;2.258;2022-08-11T05:58:32;12.20;;;11.25;;
41057;SDS011;27499;48.884;2.258;2022-08-11T06:01:08;12.38;;;11.50;;
41057;SDS011;27499;48.884;2.258;2022-08-11T06:03:47;12.35;;;11.75;;
41057;SDS011;27499;48.884;2.258;2022-08-11T06:06:36;12.38;;;11.43;;
41057;SDS011;27499;48.884;2.258;2022-08-11T06:09:12;10.65;;;10.05;;
41057;SDS011;27499;48.884;2.258;2022-08-11T06:11:41;12.15;;;11.35;;
41057;SDS011;27499;48.884;2.258;2022-08-11T06:14:10;12.93;;;12.23;;
41057;SDS011;27499;48.884;2.258;2022-08-11T06:16:39;13.27;;;12.32;;
41057;SDS011;27499;48.884;2.258;2022-08-11T06:19:08;13.77;;;13.18;;
41057;SDS011;27499;48.884;2.258;2022-08-11T06:21:35;14.50;;;13.15;;
41057;SDS011;27499;48.884;2.258;2022-08-11T06:24:04;14.68;;;13.88;;
41057;SDS011;27499;48.884;2.258;2022-08-11T06:26:41;15.27;;;14.48;;
41057;SDS011;27499;48.884;2.258;2022-08-11T06:29:34;14.20;;;12.93;;
41057;SDS011;27499;48.884;2.258;2022-08-11T06:32:24;14.55;;;13.65;;
41057;SDS011;27499;48.884;2.258;2022-08-11T06:37:55;14.60;;;13.70;;
41057;SDS011;27499;48.884;2.258;2022-08-11T06:40:53;12.20;;;11.40;;
41057;SDS011;27499;48.884;2.258;2022-08-11T06:43:49;12.18;;;11.48;;
41057;SDS011;27499;48.884;2.258;2022-08-11T06:46:28;14.73;;;13.93;;
41057;SDS011;27499;48.884;2.258;2022-08-11T06:49:01;14.48;;;13.68;;
41057;SDS011;27499;48.884;2.258;2022-08-11T06:51:29;14.32;;;13.13;;
41057;SDS011;27499;48.884;2.258;2022-08-11T06:53:59;13.20;;;12.05;;
41057;SDS011;27499;48.884;2.258;2022-08-11T06:56:37;11.27;;;9.70;;
41057;SDS011;27499;48.884;2.258;2022-08-11T06:59:44;12.65;;;9.75;;
41057;SDS011;27499;48.884;2.258;2022-08-11T07:02:30;9.80;;;7.35;;
41057;SDS011;27499;48.884;2.258;2022-08-11T07:05:00;6.72;;;6.32;;
41057;SDS011;27499;48.884;2.258;2022-08-11T07:14:04;6.95;;;6.25;;
41057;SDS011;27499;48.884;2.258;2022-08-11T07:16:52;10.70;;;5.43;;
41057;SDS011;27499;48.884;2.258;2022-08-11T07:19:23;6.97;;;4.63;;
41057;SDS011;27499;48.884;2.258;2022-08-11T07:22:12;7.90;;;5.43;;
41057;SDS011;27499;48.884;2.258;2022-08-11T07:25:00;8.75;;;5.80;;
41057;SDS011;27499;48.884;2.258;2022-08-11T07:27:49;5.35;;;4.72;;
41057;SDS011;27499;48.884;2.258;2022-08-11T07:30:41;6.75;;;5.43;;
41057;SDS011;27499;48.884;2.258;2022-08-11T07:33:10;11.63;;;4.82;;
41057;SDS011;27499;48.884;2.258;2022-08-11T07:35:59;7.95;;;5.47;;
41057;SDS011;27499;48.884;2.258;2022-08-11T07:38:33;6.90;;;5.50;;
41057;SDS011;27499;48.884;2.258;2022-08-11T07:41:13;14.57;;;7.10;;
41057;SDS011;27499;48.884;2.258;2022-08-11T07:43:42;10.90;;;5.50;;
41057;SDS011;27499;48.884;2.258;2022-08-11T07:46:12;19.50;;;4.97;;
41057;SDS011;27499;48.884;2.258;2022-08-11T07:48:57;6.03;;;4.53;;
41057;SDS011;27499;48.884;2.258;2022-08-11T07:54:29;20.73;;;4.47;;
41057;SDS011;27499;48.884;2.258;2022-08-11T07:56:58;7.13;;;3.90;;
41057;SDS011;27499;48.884;2.258;2022-08-11T07:59:46;6.55;;;4.00;;
41057;SDS011;27499;48.884;2.258;2022-08-11T08:02:35;7.25;;;4.13;;
41057;SDS011;27499;48.884;2.258;2022-08-11T08:05:21;4.60;;;3.45;;
41057;SDS011;27499;48.884;2.258;2022-08-11T08:08:06;14.75;;;6.13;;
41057;SDS011;27499;48.884;2.258;2022-08-11T08:10:53;10.30;;;5.45;;
41057;SDS011;27499;48.884;2.258;2022-08-11T08:13:41;14.15;;;6.55;;
41057;SDS011;27499;48.884;2.258;2022-08-11T08:16:28;9.63;;;4.80;;
41057;SDS011;27499;48.884;2.258;2022-08-11T08:19:15;5.05;;;2.50;;
41057;SDS011;27499;48.884;2.258;2022-08-11T08:21:44;4.78;;;2.58;;
41057;SDS011;27499;48.884;2.258;2022-08-11T08:24:12;6.72;;;3.25;;
41057;SDS011;27499;48.884;2.258;2022-08-11T08:26:41;8.68;;;2.97;;
41057;SDS011;27499;48.884;2.258;2022-08-11T08:29:31;3.60;;;2.50;;
41057;SDS011;27499;48.884;2.258;2022-08-11T08:32:19;3.38;;;2.90;;
41057;SDS011;27499;48.884;2.258;2022-08-11T08:34:50;5.82;;;3.20;;
41057;SDS011;27499;48.884;2.258;2022-08-11T08:37:21;4.95;;;3.00;;
41057;SDS011;27499;48.884;2.258;2022-08-11T08:40:10;5.32;;;2.90;;
41057;SDS011;27499;48.884;2.258;2022-08-11T08:42:41;8.57;;;3.38;;
41057;SDS011;27499;48.884;2.258;2022-08-11T08:45:16;4.45;;;2.85;;
41057;SDS011;27499;48.884;2.258;2022-08-11T08:47:45;7.18;;;3.35;;
41057;SDS011;27499;48.884;2.258;2022-08-11T08:50:19;6.00;;;3.25;;
41057;SDS011;27499;48.884;2.258;2022-08-11T08:53:00;17.40;;;4.47;;
41057;SDS011;27499;48.884;2.258;2022-08-11T08:55:31;5.93;;;4.63;;
41057;SDS011;27499;48.884;2.258;2022-08-11T08:57:59;9.77;;;3.60;;
41057;SDS011;27499;48.884;2.258;2022-08-11T09:00:38;6.38;;;4.55;;
41057;SDS011;27499;48.884;2.258;2022-08-11T09:03:07;6.57;;;3.72;;
41057;SDS011;27499;48.884;2.258;2022-08-11T09:05:55;11.48;;;4.10;;
41057;SDS011;27499;48.884;2.258;2022-08-11T09:08:23;8.45;;;4.68;;
41057;SDS011;27499;48.884;2.258;2022-08-11T09:10:51;5.47;;;4.20;;
41057;SDS011;27499;48.884;2.258;2022-08-11T09:13:39;5.50;;;4.50;;
41057;SDS011;27499;48.884;2.258;2022-08-11T09:16:09;5.18;;;3.90;;
41057;SDS011;27499;48.884;2.258;2022-08-11T09:18:38;4.03;;;3.60;;
41057;SDS011;27499;48.884;2.258;2022-08-11T09:21:10;5.93;;;4.03;;
41057;SDS011;27499;48.884;2.258;2022-08-11T09:24:00;4.70;;;4.22;;
41057;SDS011;27499;48.884;2.258;2022-08-11T09:26:51;4.85;;;4.45;;
41057;SDS011;27499;48.884;2.258;2022-08-11T09:29:27;5.10;;;4.60;;
41057;SDS011;27499;48.884;2.258;2022-08-11T09:31:57;4.78;;;4.47;;
41057;SDS011;27499;48.884;2.258;2022-08-11T09:34:25;5.13;;;4.40;;
41057;SDS011;27499;48.884;2.258;2022-08-11T09:36:53;6.93;;;4.85;;
41057;SDS011;27499;48.884;2.258;2022-08-11T09:39:59;5.75;;;5.45;;
41057;SDS011;27499;48.884;2.258;2022-08-11T09:42:44;6.13;;;5.75;;
41057;SDS011;27499;48.884;2.258;2022-08-11T09:45:30;7.22;;;6.78;;
41057;SDS011;27499;48.884;2.258;2022-08-11T09:50:33;6.50;;;5.90;;
41057;SDS011;27499;48.884;2.258;2022-08-11T09:53:01;7.57;;;6.60;;
41057;SDS011;27499;48.884;2.258;2022-08-11T09:55:51;7.15;;;6.65;;
41057;SDS011;27499;48.884;2.258;2022-08-11T09:58:20;7.80;;;7.18;;
41057;SDS011;27499;48.884;2.258;2022-08-11T10:01:08;8.20;;;7.55;;
41057;SDS011;27499;48.884;2.258;2022-08-11T10:03:58;8.05;;;7.53;;
41057;SDS011;27499;48.884;2.258;2022-08-11T10:06:33;8.13;;;7.47;;
41057;SDS011;27499;48.884;2.258;2022-08-11T10:09:22;8.57;;;8.07;;
41057;SDS011;27499;48.884;2.258;2022-08-11T10:11:55;8.07;;;7.68;;
41057;SDS011;27499;48.884;2.258;2022-08-11T10:14:24;8.30;;;7.70;;
41057;SDS011;27499;48.884;2.258;2022-08-11T10:17:16;7.35;;;6.65;;
41057;SDS011;27499;48.884;2.258;2022-08-11T10:19:47;6.93;;;6.55;;
41057;SDS011;27499;48.884;2.258;2022-08-11T10:22:31;6.05;;;5.75;;
41057;SDS011;27499;48.884;2.258;2022-08-11T10:25:35;7.03;;;6.43;;
41057;SDS011;27499;48.884;2.258;2022-08-11T10:28:20;7.32;;;6.70;;
41057;SDS011;27499;48.884;2.258;2022-08-11T10:31:05;7.83;;;7.03;;
41057;SDS011;27499;48.884;2.258;2022-08-11T10:34:05;7.57;;;6.97;;
41057;SDS011;27499;48.884;2.258;2022-08-11T10:39:13;7.80;;;7.22;;
41057;SDS011;27499;48.884;2.258;2022-08-11T10:41:44;7.47;;;6.97;;
41057;SDS011;27499;48.884;2.258;2022-08-11T10:44:42;7.15;;;6.60;;
41057;SDS011;27499;48.884;2.258;2022-08-11T10:47:12;6.47;;;6.03;;
41057;SDS011;27499;48.884;2.258;2022-08-11T10:50:03;6.47;;;5.97;;
41057;SDS011;27499;48.884;2.258;2022-08-11T10:52:53;6.68;;;6.20;;
41057;SDS011;27499;48.884;2.258;2022-08-11T10:55:41;6.70;;;6.30;;
41057;SDS011;27499;48.884;2.258;2022-08-11T10:58:48;6.45;;;6.05;;
41057;SDS011;27499;48.884;2.258;2022-08-11T11:03:50;6.35;;;5.93;;
41057;SDS011;27499;48.884;2.258;2022-08-11T11:06:28;8.30;;;7.45;;
41057;SDS011;27499;48.884;2.258;2022-08-11T11:11:33;6.32;;;5.72;;
41057;SDS011;27499;48.884;2.258;2022-08-11T11:14:21;14.60;;;6.28;;
41057;SDS011;27499;48.884;2.258;2022-08-11T11:17:19;6.15;;;5.75;;
41057;SDS011;27499;48.884;2.258;2022-08-11T11:20:11;7.90;;;6.35;;
41057;SDS011;27499;48.884;2.258;2022-08-11T11:23:03;6.25;;;5.63;;
41057;SDS011;27499;48.884;2.258;2022-08-11T11:37:45;6.13;;;5.70;;
41057;SDS011;27499;48.884;2.258;2022-08-11T11:40:29;6.30;;;5.93;;
41057;SDS011;27499;48.884;2.258;2022-08-11T11:42:58;6.88;;;6.43;;
41057;SDS011;27499;48.884;2.258;2022-08-11T11:45:26;7.03;;;6.53;;
41057;SDS011;27499;48.884;2.258;2022-08-11T11:47:54;6.65;;;6.15;;
41057;SDS011;27499;48.884;2.258;2022-08-11T11:52:58;7.18;;;6.07;;
41057;SDS011;27499;48.884;2.258;2022-08-11T11:55:27;7.15;;;6.65;;
41057;SDS011;27499;48.884;2.258;2022-08-11T11:57:55;6.68;;;6.28;;
41057;SDS011;27499;48.884;2.258;2022-08-11T12:00:44;7.60;;;6.95;;
41057;SDS011;27499;48.884;2.258;2022-08-11T12:03:31;5.75;;;5.30;;
41057;SDS011;27499;48.884;2.258;2022-08-11T12:05:59;7.13;;;6.60;;
41057;SDS011;27499;48.884;2.258;2022-08-11T12:08:28;6.85;;;6.35;;
41057;SDS011;27499;48.884;2.258;2022-08-11T12:10:57;11.27;;;7.00;;
41057;SDS011;27499;48.884;2.258;2022-08-11T12:13:46;6.53;;;6.13;;
41057;SDS011;27499;48.884;2.258;2022-08-11T12:16:16;6.78;;;6.28;;
41057;SDS011;27499;48.884;2.258;2022-08-11T12:21:32;6.07;;;5.78;;
41057;SDS011;27499;48.884;2.258;2022-08-11T12:24:00;6.57;;;6.07;;
41057;SDS011;27499;48.884;2.258;2022-08-11T12:26:47;6.65;;;6.18;;
41057;SDS011;27499;48.884;2.258;2022-08-11T12:29:34;13.20;;;6.97;;
41057;SDS011;27499;48.884;2.258;2022-08-11T12:32:09;8.70;;;7.32;;
41057;SDS011;27499;48.884;2.258;2022-08-11T12:34:36;8.68;;;7.30;;
41057;SDS011;27499;48.884;2.258;2022-08-11T12:37:03;7.88;;;7.38;;
41057;SDS011;27499;48.884;2.258;2022-08-11T12:39:41;8.05;;;7.55;;
41057;SDS011;27499;48.884;2.258;2022-08-11T12:42:50;7.47;;;7.00;;
41057;SDS011;27499;48.884;2.258;2022-08-11T12:45:47;7.45;;;7.03;;
41057;SDS011;27499;48.884;2.258;2022-08-11T12:48:26;8.38;;;7.60;;
41057;SDS011;27499;48.884;2.258;2022-08-11T12:51:25;8.48;;;7.95;;
41057;SDS011;27499;48.884;2.258;2022-08-11T12:54:47;8.43;;;7.82;;
41057;SDS011;27499;48.884;2.258;2022-08-11T12:57:27;7.65;;;7.22;;
41057;SDS011;27499;48.884;2.258;2022-08-11T13:00:19;8.50;;;7.53;;
41057;SDS011;27499;48.884;2.258;2022-08-11T13:03:06;8.68;;;7.85;;
41057;SDS011;27499;48.884;2.258;2022-08-11T13:05:54;8.23;;;7.60;;
41057;SDS011;27499;48.884;2.258;2022-08-11T13:08:24;8.52;;;7.57;;
41057;SDS011;27499;48.884;2.258;2022-08-11T13:10:53;7.70;;;7.30;;
41057;SDS011;27499;48.884;2.258;2022-08-11T13:13:40;8.07;;;7.60;;
41057;SDS011;27499;48.884;2.258;2022-08-11T13:16:31;7.25;;;6.85;;
41057;SDS011;27499;48.884;2.258;2022-08-11T13:19:19;8.20;;;7.38;;
41057;SDS011;27499;48.884;2.258;2022-08-11T13:21:48;7.25;;;6.85;;
41057;SDS011;27499;48.884;2.258;2022-08-11T13:24:17;8.23;;;7.72;;
41057;SDS011;27499;48.884;2.258;2022-08-11T13:26:45;8.50;;;7.90;;
41057;SDS011;27499;48.884;2.258;2022-08-11T13:29:16;8.32;;;7.93;;
41057;SDS011;27499;48.884;2.258;2022-08-11T13:31:49;8.75;;;8.02;;
41057;SDS011;27499;48.884;2.258;2022-08-11T13:34:18;8.48;;;7.95;;
41057;SDS011;27499;48.884;2.258;2022-08-11T13:36:47;7.68;;;7.22;;
41057;SDS011;27499;48.884;2.258;2022-08-11T13:39:18;8.40;;;7.55;;
41057;SDS011;27499;48.884;2.258;2022-08-11T13:41:54;9.82;;;7.80;;
41057;SDS011;27499;48.884;2.258;2022-08-11T13:44:25;10.23;;;9.43;;
41057;SDS011;27499;48.884;2.258;2022-08-11T13:47:01;9.38;;;8.73;;
41057;SDS011;27499;48.884;2.258;2022-08-11T13:49:30;11.15;;;10.02;;
41057;SDS011;27499;48.884;2.258;2022-08-11T13:51:58;10.88;;;9.90;;
41057;SDS011;27499;48.884;2.258;2022-08-11T13:54:27;10.25;;;9.50;;
41057;SDS011;27499;48.884;2.258;2022-08-11T13:56:59;9.35;;;8.68;;
41057;SDS011;27499;48.884;2.258;2022-08-11T13:59:33;10.13;;;9.52;;
41057;SDS011;27499;48.884;2.258;2022-08-11T14:02:18;8.52;;;8.02;;
41057;SDS011;27499;48.884;2.258;2022-08-11T14:05:00;9.75;;;9.13;;
41057;SDS011;27499;48.884;2.258;2022-08-11T14:07:39;9.63;;;8.93;;
41057;SDS011;27499;48.884;2.258;2022-08-11T14:10:12;10.15;;;9.50;;
41057;SDS011;27499;48.884;2.258;2022-08-11T14:12:42;9.48;;;8.85;;
41057;SDS011;27499;48.884;2.258;2022-08-11T14:15:40;8.93;;;8.52;;
41057;SDS011;27499;48.884;2.258;2022-08-11T14:18:13;9.60;;;9.00;;
41057;SDS011;27499;48.884;2.258;2022-08-11T14:20:49;13.55;;;9.60;;
41057;SDS011;27499;48.884;2.258;2022-08-11T14:23:38;9.88;;;9.27;;
41057;SDS011;27499;48.884;2.258;2022-08-11T14:26:08;10.45;;;9.57;;
41057;SDS011;27499;48.884;2.258;2022-08-11T14:28:56;10.05;;;9.10;;
41057;SDS011;27499;48.884;2.258;2022-08-11T14:31:25;10.38;;;9.50;;
41057;SDS011;27499;48.884;2.258;2022-08-11T14:34:00;9.57;;;9.02;;
41057;SDS011;27499;48.884;2.258;2022-08-11T14:36:33;9.75;;;9.00;;
41057;SDS011;27499;48.884;2.258;2022-08-11T14:39:07;11.15;;;10.45;;
41057;SDS011;27499;48.884;2.258;2022-08-11T14:41:39;10.15;;;9.30;;
41057;SDS011;27499;48.884;2.258;2022-08-11T14:44:38;9.82;;;9.02;;
41057;SDS011;27499;48.884;2.258;2022-08-11T14:47:28;9.90;;;9.30;;
41057;SDS011;27499;48.884;2.258;2022-08-11T14:50:00;10.60;;;10.07;;
41057;SDS011;27499;48.884;2.258;2022-08-11T14:52:38;11.15;;;10.45;;
41057;SDS011;27499;48.884;2.258;2022-08-11T14:55:21;10.60;;;10.10;;
41057;SDS011;27499;48.884;2.258;2022-08-11T14:58:09;11.60;;;10.90;;
41057;SDS011;27499;48.884;2.258;2022-08-11T15:00:38;11.20;;;10.65;;
41057;SDS011;27499;48.884;2.258;2022-08-11T15:03:07;12.23;;;11.50;;
41057;SDS011;27499;48.884;2.258;2022-08-11T15:05:44;11.43;;;10.82;;
41057;SDS011;27499;48.884;2.258;2022-08-11T15:08:33;11.25;;;10.45;;
41057;SDS011;27499;48.884;2.258;2022-08-11T15:11:22;10.77;;;10.18;;
41057;SDS011;27499;48.884;2.258;2022-08-11T15:14:12;11.95;;;11.30;;
41057;SDS011;27499;48.884;2.258;2022-08-11T15:17:00;11.55;;;10.95;;
41057;SDS011;27499;48.884;2.258;2022-08-11T15:19:33;12.35;;;11.55;;
41057;SDS011;27499;48.884;2.258;2022-08-11T15:22:06;11.82;;;11.15;;
41057;SDS011;27499;48.884;2.258;2022-08-11T15:24:54;11.65;;;11.02;;
41057;SDS011;27499;48.884;2.258;2022-08-11T15:27:22;12.45;;;11.38;;
41057;SDS011;27499;48.884;2.258;2022-08-11T15:30:09;11.82;;;11.23;;
41057;SDS011;27499;48.884;2.258;2022-08-11T15:33:00;11.27;;;10.73;;
41057;SDS011;27499;48.884;2.258;2022-08-11T15:35:51;11.30;;;10.70;;
41057;SDS011;27499;48.884;2.258;2022-08-11T15:38:40;11.43;;;10.55;;
41057;SDS011;27499;48.884;2.258;2022-08-11T15:41:12;11.82;;;11.25;;
41057;SDS011;27499;48.884;2.258;2022-08-11T15:44:01;11.75;;;11.15;;
41057;SDS011;27499;48.884;2.258;2022-08-11T15:47:10;11.45;;;10.85;;
41057;SDS011;27499;48.884;2.258;2022-08-11T15:49:39;11.27;;;10.68;;
41057;SDS011;27499;48.884;2.258;2022-08-11T15:52:32;11.95;;;11.30;;
41057;SDS011;27499;48.884;2.258;2022-08-11T15:55:06;12.18;;;11.57;;
41057;SDS011;27499;48.884;2.258;2022-08-11T15:57:34;12.43;;;11.82;;
41057;SDS011;27499;48.884;2.258;2022-08-11T16:00:21;12.73;;;11.95;;
41057;SDS011;27499;48.884;2.258;2022-08-11T16:03:07;12.90;;;12.20;;
41057;SDS011;27499;48.884;2.258;2022-08-11T16:08:41;12.90;;;11.40;;
41057;SDS011;27499;48.884;2.258;2022-08-11T16:11:10;12.90;;;12.15;;
41057;SDS011;27499;48.884;2.258;2022-08-11T16:13:38;13.30;;;12.60;;
41057;SDS011;27499;48.884;2.258;2022-08-11T16:16:06;16.75;;;14.90;;
41057;SDS011;27499;48.884;2.258;2022-08-11T16:18:50;13.88;;;12.60;;
41057;SDS011;27499;48.884;2.258;2022-08-11T16:21:34;17.83;;;13.52;;
41057;SDS011;27499;48.884;2.258;2022-08-11T16:24:11;13.30;;;12.50;;
41057;SDS011;27499;48.884;2.258;2022-08-11T16:27:00;14.30;;;13.50;;
41057;SDS011;27499;48.884;2.258;2022-08-11T16:29:39;14.57;;;13.88;;
41057;SDS011;27499;48.884;2.258;2022-08-11T16:32:10;15.07;;;14.27;;
41057;SDS011;27499;48.884;2.258;2022-08-11T16:34:50;15.80;;;14.90;;
41057;SDS011;27499;48.884;2.258;2022-08-11T16:37:42;15.25;;;14.52;;
41057;SDS011;27499;48.884;2.258;2022-08-11T16:40:29;15.30;;;14.52;;
41057;SDS011;27499;48.884;2.258;2022-08-11T16:42:57;14.52;;;13.73;;
41057;SDS011;27499;48.884;2.258;2022-08-11T16:45:44;14.02;;;13.32;;
41057;SDS011;27499;48.884;2.258;2022-08-11T16:48:31;14.38;;;13.07;;
41057;SDS011;27499;48.884;2.258;2022-08-11T16:51:04;15.02;;;13.73;;
41057;SDS011;27499;48.884;2.258;2022-08-11T16:53:32;13.70;;;13.00;;
41057;SDS011;27499;48.884;2.258;2022-08-11T16:56:27;14.15;;;13.23;;
41057;SDS011;27499;48.884;2.258;2022-08-11T16:58:59;13.13;;;12.52;;
41057;SDS011;27499;48.884;2.258;2022-08-11T17:07:33;13.98;;;13.27;;
41057;SDS011;27499;48.884;2.258;2022-08-11T17:10:27;13.32;;;12.52;;
41057;SDS011;27499;48.884;2.258;2022-08-11T17:13:27;14.20;;;13.60;;
41057;SDS011;27499;48.884;2.258;2022-08-11T17:15:59;14.52;;;13.80;;
41057;SDS011;27499;48.884;2.258;2022-08-11T17:21:29;16.92;;;15.82;;
41057;SDS011;27499;48.884;2.258;2022-08-11T17:24:25;14.85;;;14.15;;
41057;SDS011;27499;48.884;2.258;2022-08-11T17:26:54;15.80;;;14.85;;
41057;SDS011;27499;48.884;2.258;2022-08-11T17:32:22;15.70;;;14.70;;
41057;SDS011;27499;48.884;2.258;2022-08-11T17:35:25;14.52;;;13.65;;
41057;SDS011;27499;48.884;2.258;2022-08-11T17:38:03;15.23;;;14.52;;
41057;SDS011;27499;48.884;2.258;2022-08-11T17:40:46;14.05;;;12.95;;
41057;SDS011;27499;48.884;2.258;2022-08-11T17:43:48;15.60;;;14.48;;
41057;SDS011;27499;48.884;2.258;2022-08-11T17:46:35;16.73;;;15.90;;
41057;SDS011;27499;48.884;2.258;2022-08-11T17:49:36;16.05;;;15.30;;
41057;SDS011;27499;48.884;2.258;2022-08-11T17:52:05;18.55;;;17.08;;
41057;SDS011;27499;48.884;2.258;2022-08-11T17:54:51;18.38;;;16.83;;
41057;SDS011;27499;48.884;2.258;2022-08-11T17:57:38;18.67;;;17.58;;
41057;SDS011;27499;48.884;2.258;2022-08-11T18:00:25;17.17;;;15.93;;
41057;SDS011;27499;48.884;2.258;2022-08-11T18:02:52;16.77;;;15.88;;
41057;SDS011;27499;48.884;2.258;2022-08-11T18:05:41;17.20;;;16.27;;
41057;SDS011;27499;48.884;2.258;2022-08-11T18:08:11;16.58;;;15.57;;
41057;SDS011;27499;48.884;2.258;2022-08-11T18:10:58;18.70;;;17.45;;
41057;SDS011;27499;48.884;2.258;2022-08-11T18:14:06;15.90;;;15.00;;
41057;SDS011;27499;48.884;2.258;2022-08-11T18:16:54;15.95;;;15.05;;
41057;SDS011;27499;48.884;2.258;2022-08-11T18:19:40;15.48;;;14.57;;
41057;SDS011;27499;48.884;2.258;2022-08-11T18:25:14;14.35;;;13.52;;
41057;SDS011;27499;48.884;2.258;2022-08-11T18:28:10;13.88;;;13.13;;
41057;SDS011;27499;48.884;2.258;2022-08-11T18:30:58;13.55;;;12.85;;
41057;SDS011;27499;48.884;2.258;2022-08-11T18:33:50;14.88;;;14.07;;
41057;SDS011;27499;48.884;2.258;2022-08-11T18:36:38;14.52;;;13.82;;
41057;SDS011;27499;48.884;2.258;2022-08-11T18:39:49;14.70;;;13.93;;
41057;SDS011;27499;48.884;2.258;2022-08-11T18:42:45;14.32;;;13.52;;
41057;SDS011;27499;48.884;2.258;2022-08-11T18:45:33;14.68;;;13.85;;
41057;SDS011;27499;48.884;2.258;2022-08-11T18:48:32;14.18;;;13.48;;
41057;SDS011;27499;48.884;2.258;2022-08-11T18:51:21;13.68;;;12.88;;
41057;SDS011;27499;48.884;2.258;2022-08-11T18:54:09;13.25;;;12.57;;
41057;SDS011;27499;48.884;2.258;2022-08-11T18:56:56;14.70;;;13.77;;
41057;SDS011;27499;48.884;2.258;2022-08-11T18:59:46;13.70;;;12.93;;
41057;SDS011;27499;48.884;2.258;2022-08-11T19:02:34;14.30;;;13.50;;
41057;SDS011;27499;48.884;2.258;2022-08-11T19:05:21;13.90;;;13.15;;
41057;SDS011;27499;48.884;2.258;2022-08-11T19:08:29;13.60;;;12.70;;
41057;SDS011;27499;48.884;2.258;2022-08-11T19:11:18;16.40;;;13.13;;
41057;SDS011;27499;48.884;2.258;2022-08-11T19:14:08;12.85;;;12.07;;
41057;SDS011;27499;48.884;2.258;2022-08-11T19:16:59;14.52;;;13.55;;
41057;SDS011;27499;48.884;2.258;2022-08-11T19:20:10;13.88;;;13.00;;
41057;SDS011;27499;48.884;2.258;2022-08-11T19:23:04;11.85;;;11.23;;
41057;SDS011;27499;48.884;2.258;2022-08-11T19:25:52;12.20;;;11.50;;
41057;SDS011;27499;48.884;2.258;2022-08-11T19:28:40;12.68;;;11.73;;
41057;SDS011;27499;48.884;2.258;2022-08-11T19:31:27;12.60;;;11.60;;
41057;SDS011;27499;48.884;2.258;2022-08-11T19:34:14;12.25;;;11.38;;
41057;SDS011;27499;48.884;2.258;2022-08-11T19:37:03;11.82;;;11.20;;
41057;SDS011;27499;48.884;2.258;2022-08-11T19:40:03;12.57;;;11.55;;
41057;SDS011;27499;48.884;2.258;2022-08-11T19:42:51;11.82;;;11.02;;
41057;SDS011;27499;48.884;2.258;2022-08-11T19:45:52;11.18;;;10.48;;
41057;SDS011;27499;48.884;2.258;2022-08-11T19:48:40;11.40;;;10.70;;
41057;SDS011;27499;48.884;2.258;2022-08-11T19:51:29;10.93;;;10.05;;